createdAt,value
2022-09-03T00:00:12.638Z,101070.53
2022-09-03T00:00:49.739Z,101064.09
2022-09-03T00:01:25.233Z,101066.72
2022-09-03T00:02:02.177Z,101069.06
2022-09-03T00:02:52.257Z,101061.25
2022-09-03T00:03:37.655Z,101067.63
2022-09-03T00:04:25.736Z,101062.72
2022-09-03T00:05:10.061Z,101069.13
2022-09-03T00:05:45.736Z,101063.66
2022-09-03T00:06:21.738Z,101070.09
2022-09-03T00:07:01.726Z,101069.53
2022-09-03T00:07:45.435Z,101063.59
2022-09-03T00:08:32.982Z,101066.19
2022-09-03T00:09:28.918Z,101070.50
2022-09-03T00:10:05.350Z,101067.25
2022-09-03T00:10:44.689Z,101067.25
2022-09-03T00:11:23.003Z,101069.34
2022-09-03T00:12:17.982Z,101067.50
2022-09-03T00:12:51.470Z,101066.09
2022-09-03T00:13:34.011Z,101069.84
2022-09-03T00:14:08.018Z,101065.53
2022-09-03T00:14:51.905Z,101071.28
2022-09-03T00:15:24.122Z,101062.97
2022-09-03T00:15:57.513Z,101061.69
2022-09-03T00:16:34.410Z,101067.06
2022-09-03T00:17:10.519Z,101067.06
2022-09-03T00:17:49.619Z,101069.97
2022-09-03T00:18:23.906Z,101061.94
2022-09-03T00:19:00.594Z,101064.28
2022-09-03T00:19:35.295Z,101068.50
2022-09-03T00:20:18.908Z,101058.25
2022-09-03T00:21:08.376Z,101069.47
2022-09-03T00:21:52.516Z,101067.53
2022-09-03T00:22:33.863Z,101068.81
2022-09-03T00:23:07.816Z,101067.19
2022-09-03T00:23:42.582Z,101069.31
2022-09-03T00:24:17.466Z,101069.88
2022-09-03T00:24:50.174Z,101065.56
2022-09-03T00:26:14.847Z,101067.84
2022-09-03T00:26:54.620Z,101066.31
2022-09-03T00:27:27.294Z,101064.13
2022-09-03T00:27:59.897Z,101063.78
2022-09-03T00:28:38.889Z,101070.44
2022-09-03T00:29:22.814Z,101067.19
2022-09-03T00:29:59.833Z,101067.19
2022-09-03T00:30:32.524Z,101069.88
2022-09-03T00:31:38.360Z,101071.38
2022-09-03T00:32:26.399Z,101067.31
2022-09-03T00:33:06.910Z,101066.03
2022-09-03T00:33:40.062Z,101063.94
2022-09-03T00:34:32.696Z,101069.75
2022-09-03T00:35:06.731Z,101070.25
2022-09-03T00:35:50.618Z,101064.97
2022-09-03T00:36:42.206Z,101068.50
2022-09-03T00:37:15.586Z,101068.13
2022-09-03T00:37:47.896Z,101071.88
2022-09-03T00:38:22.229Z,101066.16
2022-09-03T00:38:53.734Z,101065.69
2022-09-03T00:39:26.677Z,101068.28
2022-09-03T00:39:58.283Z,101071.19
2022-09-03T00:40:48.231Z,101073.16
2022-09-03T00:41:21.226Z,101068.38
2022-09-03T00:42:21.540Z,101078.38
2022-09-03T00:43:34.363Z,101068.13
2022-09-03T00:44:05.859Z,101072.06
2022-09-03T00:44:43.511Z,101062.16
2022-09-03T00:45:33.765Z,101067.53
2022-09-03T00:46:13.946Z,101074.19
2022-09-03T00:46:51.343Z,101079.56
2022-09-03T00:47:44.887Z,101077.09
2022-09-03T00:48:28.388Z,101074.56
2022-09-03T00:49:10.085Z,101071.88
2022-09-03T00:50:09.277Z,101071.38
2022-09-03T00:50:49.264Z,101074.19
2022-09-03T00:51:40.550Z,101075.13
2022-09-03T00:52:28.821Z,101078.38
2022-09-03T00:53:23.828Z,101071.53
2022-09-03T00:54:25.704Z,101071.63
2022-09-03T00:55:05.900Z,101070.25
2022-09-03T00:55:39.698Z,101073.50
2022-09-03T00:56:30.025Z,101069.44
2022-09-03T00:57:27.843Z,101076.91
2022-09-03T00:58:09.254Z,101070.25
2022-09-03T00:59:18.946Z,101071.28
2022-09-03T01:00:12.158Z,101071.78
2022-09-03T01:00:45.111Z,101065.84
2022-09-03T01:01:33.841Z,101069.09
2022-09-03T01:02:11.310Z,101072.84
2022-09-03T01:03:07.922Z,101071.69
2022-09-03T01:03:53.322Z,101066.81
2022-09-03T01:04:54.554Z,101066.81
2022-09-03T01:05:26.821Z,101064.34
2022-09-03T01:06:22.063Z,101068.91
2022-09-03T01:07:34.090Z,101060.28
2022-09-03T01:08:05.539Z,101063.53
2022-09-03T01:08:41.382Z,101065.66
2022-09-03T01:09:24.093Z,101070.69
2022-09-03T01:10:11.714Z,101068.44
2022-09-03T01:11:01.577Z,101069.28
2022-09-03T01:12:16.470Z,101067.53
2022-09-03T01:12:56.952Z,101066.25
2022-09-03T01:13:37.693Z,101068.84
2022-09-03T01:14:37.900Z,101071.28
2022-09-03T01:15:36.230Z,101063.94
2022-09-03T01:16:13.798Z,101065.72
2022-09-03T01:16:53.378Z,101065.72
2022-09-03T01:17:42.400Z,101066.19
2022-09-03T01:18:27.537Z,101062.94
2022-09-03T01:19:37.775Z,101068.31
2022-09-03T01:20:46.203Z,101065.03
2022-09-03T01:21:34.801Z,101069.84
2022-09-03T01:22:38.523Z,101072.72
2022-09-03T01:23:37.235Z,101076.59
2022-09-03T01:24:46.763Z,101074.13
2022-09-03T01:25:44.032Z,101073.53
2022-09-03T01:26:24.682Z,101076.22
2022-09-03T01:27:11.111Z,101071.56
2022-09-03T01:27:48.247Z,101075.28
2022-09-03T01:28:25.668Z,101065.25
2022-09-03T01:29:11.907Z,101068.41
2022-09-03T01:30:00.654Z,101072.63
2022-09-03T01:30:39.053Z,101070.84
2022-09-03T01:31:47.231Z,101068.06
2022-09-03T01:32:29.136Z,101071.34
2022-09-03T01:33:20.886Z,101072.03
2022-09-03T01:34:11.422Z,101075.78
2022-09-03T01:34:53.853Z,101072.03
2022-09-03T01:35:35.012Z,101074.72
2022-09-03T01:36:24.551Z,101070.03
2022-09-03T01:37:20.917Z,101073.44
2022-09-03T01:38:17.569Z,101067.94
2022-09-03T01:39:02.924Z,101070.41
2022-09-03T01:39:55.731Z,101070.03
2022-09-03T01:40:36.108Z,101077.28
2022-09-03T01:41:47.882Z,101074.59
2022-09-03T01:42:24.420Z,101069.00
2022-09-03T01:43:15.845Z,101068.19
2022-09-03T01:44:11.254Z,101070.63
2022-09-03T01:45:08.874Z,101072.84
2022-09-03T01:45:51.614Z,101068.06
2022-09-03T01:46:26.452Z,101067.94
2022-09-03T01:47:10.966Z,101070.63
2022-09-03T01:48:07.883Z,101069.69
2022-09-03T01:48:51.527Z,101070.84
2022-09-03T01:49:38.493Z,101072.63
2022-09-03T01:50:11.351Z,101067.13
2022-09-03T01:50:48.360Z,101073.31
2022-09-03T01:51:29.033Z,101071.69
2022-09-03T01:52:13.745Z,101076.22
2022-09-03T01:53:03.382Z,101072.72
2022-09-03T01:53:53.044Z,101072.25
2022-09-03T01:54:45.046Z,101073.53
2022-09-03T01:55:44.160Z,101069.47
2022-09-03T01:56:33.475Z,101070.19
2022-09-03T01:57:35.886Z,101073.66
2022-09-03T01:58:16.394Z,101073.34
2022-09-03T01:59:07.925Z,101074.03
2022-09-03T01:59:50.471Z,101078.78
2022-09-03T02:00:22.739Z,101072.84
2022-09-03T02:01:05.278Z,101076.00
2022-09-03T02:01:46.695Z,101074.94
2022-09-03T02:02:23.290Z,101081.69
2022-09-03T02:02:55.036Z,101074.38
2022-09-03T02:03:34.077Z,101079.38
2022-09-03T02:04:15.740Z,101073.69
2022-09-03T02:05:09.662Z,101074.72
2022-09-03T02:05:43.879Z,101079.50
2022-09-03T02:06:15.766Z,101077.53
2022-09-03T02:06:48.915Z,101078.59
2022-09-03T02:07:21.554Z,101080.44
2022-09-03T02:07:55.734Z,101071.84
2022-09-03T02:08:27.462Z,101072.06
2022-09-03T02:08:58.981Z,101075.56
2022-09-03T02:09:32.821Z,101074.94
2022-09-03T02:10:07.746Z,101075.56
2022-09-03T02:10:49.625Z,101069.16
2022-09-03T02:11:21.126Z,101073.91
2022-09-03T02:12:00.373Z,101073.91
2022-09-03T02:12:33.734Z,101071.69
2022-09-03T02:13:08.746Z,101076.00
2022-09-03T02:13:46.179Z,101075.19
2022-09-03T02:14:17.860Z,101079.97
2022-09-03T02:14:49.342Z,101076.13
2022-09-03T02:15:23.278Z,101081.94
2022-09-03T02:15:58.573Z,101079.50
2022-09-03T02:16:33.545Z,101077.88
2022-09-03T02:17:05.680Z,101077.88
2022-09-03T02:17:37.396Z,101076.25
2022-09-03T02:18:19.757Z,101076.72
2022-09-03T02:18:54.448Z,101079.38
2022-09-03T02:19:27.551Z,101076.72
2022-09-03T02:20:04.337Z,101078.56
2022-09-03T02:20:37.203Z,101071.81
2022-09-03T02:21:10.566Z,101070.78
2022-09-03T02:21:51.221Z,101074.50
2022-09-03T02:22:22.815Z,101071.81
2022-09-03T02:22:55.115Z,101075.53
2022-09-03T02:23:28.510Z,101073.91
2022-09-03T02:24:00.903Z,101077.63
2022-09-03T02:24:32.617Z,101070.66
2022-09-03T02:25:04.472Z,101082.41
2022-09-03T02:25:39.407Z,101078.06
2022-09-03T02:26:12.406Z,101080.16
2022-09-03T02:26:44.024Z,101083.31
2022-09-03T02:27:16.089Z,101079.47
2022-09-03T02:27:49.439Z,101084.00
2022-09-03T02:28:21.007Z,101078.88
2022-09-03T02:28:54.263Z,101074.47
2022-09-03T02:29:26.156Z,101078.53
2022-09-03T02:29:59.459Z,101082.25
2022-09-03T02:30:30.977Z,101081.44
2022-09-03T02:31:02.984Z,101083.06
2022-09-03T02:31:34.534Z,101084.81
2022-09-03T02:32:06.075Z,101091.81
2022-09-03T02:32:37.982Z,101084.47
2022-09-03T02:33:10.067Z,101083.06
2022-09-03T02:33:44.719Z,101079.56
2022-09-03T02:34:16.259Z,101084.56
2022-09-03T02:34:47.875Z,101084.56
2022-09-03T02:35:19.694Z,101075.97
2022-09-03T02:35:52.030Z,101085.03
2022-09-03T02:36:32.874Z,101080.16
2022-09-03T02:37:13.679Z,101082.22
2022-09-03T02:37:45.199Z,101078.50
2022-09-03T02:38:19.891Z,101082.22
2022-09-03T02:38:51.666Z,101084.28
2022-09-03T02:39:23.242Z,101086.38
2022-09-03T02:39:54.952Z,101086.75
2022-09-03T02:40:26.605Z,101077.69
2022-09-03T02:40:58.550Z,101077.47
2022-09-03T02:41:30.961Z,101074.78
2022-09-03T02:42:02.938Z,101082.81
2022-09-03T02:42:34.868Z,101080.16
2022-09-03T02:43:10.621Z,101077.25
2022-09-03T02:43:48.138Z,101076.66
2022-09-03T02:44:28.213Z,101074.78
2022-09-03T02:45:14.199Z,101078.41
2022-09-03T02:45:47.527Z,101078.19
2022-09-03T02:46:28.248Z,101074.09
2022-09-03T02:47:05.810Z,101075.97
2022-09-03T02:47:38.746Z,101075.50
2022-09-03T02:48:11.485Z,101070.97
2022-09-03T02:48:43.090Z,101075.03
2022-09-03T02:49:14.824Z,101075.03
2022-09-03T02:49:49.714Z,101078.75
2022-09-03T02:50:21.234Z,101067.00
2022-09-03T02:50:52.926Z,101076.66
2022-09-03T02:51:24.443Z,101072.81
2022-09-03T02:52:05.918Z,101077.59
2022-09-03T02:52:37.407Z,101075.97
2022-09-03T02:53:09.501Z,101070.84
2022-09-03T02:53:41.932Z,101071.88
2022-09-03T02:54:16.710Z,101073.16
2022-09-03T02:54:50.618Z,101074.19
2022-09-03T02:55:22.398Z,101066.63
2022-09-03T02:55:58.338Z,101077.78
2022-09-03T02:56:29.906Z,101074.28
2022-09-03T02:57:02.195Z,101076.72
2022-09-03T02:57:33.807Z,101067.06
2022-09-03T02:58:08.862Z,101071.84
2022-09-03T02:58:40.947Z,101071.59
2022-09-03T02:59:15.076Z,101069.16
2022-09-03T02:59:46.937Z,101073.34
2022-09-03T03:00:18.535Z,101079.75
2022-09-03T03:00:51.227Z,101071.72
2022-09-03T03:01:23.780Z,101076.03
2022-09-03T03:01:55.851Z,101072.19
2022-09-03T03:02:32.610Z,101068.91
2022-09-03T03:03:05.536Z,101066.47
2022-09-03T03:03:37.051Z,101067.75
2022-09-03T03:04:08.569Z,101068.16
2022-09-03T03:04:40.234Z,101064.47
2022-09-03T03:05:15.867Z,101063.88
2022-09-03T03:05:50.891Z,101065.34
2022-09-03T03:06:22.773Z,101061.03
2022-09-03T03:06:54.432Z,101065.78
2022-09-03T03:07:26.772Z,101076.94
2022-09-03T03:07:58.656Z,101064.63
2022-09-03T03:08:32.237Z,101065.66
2022-09-03T03:09:05.940Z,101063.81
2022-09-03T03:09:37.757Z,101060.53
2022-09-03T03:10:09.697Z,101063.00
2022-09-03T03:10:45.004Z,101068.69
2022-09-03T03:11:19.397Z,101062.53
2022-09-03T03:11:51.331Z,101065.22
2022-09-03T03:12:22.911Z,101064.75
2022-09-03T03:12:54.662Z,101066.25
2022-09-03T03:13:30.119Z,101063.81
2022-09-03T03:14:01.655Z,101067.53
2022-09-03T03:14:33.167Z,101063.44
2022-09-03T03:15:05.179Z,101066.13
2022-09-03T03:15:36.784Z,101072.06
2022-09-03T03:16:08.459Z,101063.22
2022-09-03T03:16:39.994Z,101064.03
2022-09-03T03:17:11.540Z,101062.53
2022-09-03T03:17:43.070Z,101069.69
2022-09-03T03:18:15.222Z,101058.41
2022-09-03T03:18:46.783Z,101061.91
2022-09-03T03:19:18.390Z,101062.50
2022-09-03T03:19:49.904Z,101066.00
2022-09-03T03:20:21.573Z,101068.22
2022-09-03T03:20:53.123Z,101070.88
2022-09-03T03:21:25.087Z,101063.91
2022-09-03T03:21:56.878Z,101061.09
2022-09-03T03:22:28.394Z,101059.91
2022-09-03T03:23:04.698Z,101065.28
2022-09-03T03:23:36.800Z,101066.91
2022-09-03T03:24:08.634Z,101064.66
2022-09-03T03:24:40.855Z,101059.06
2022-09-03T03:25:12.850Z,101071.03
2022-09-03T03:25:44.420Z,101061.63
2022-09-03T03:26:21.075Z,101059.16
2022-09-03T03:26:58.053Z,101065.31
2022-09-03T03:27:29.600Z,101057.09
2022-09-03T03:28:01.234Z,101060.56
2022-09-03T03:28:33.974Z,101063.00
2022-09-03T03:29:05.459Z,101062.66
2022-09-03T03:29:37.322Z,101064.50
2022-09-03T03:30:10.599Z,101064.50
2022-09-03T03:30:42.834Z,101060.22
2022-09-03T03:31:17.943Z,101062.88
2022-09-03T03:31:49.483Z,101056.50
2022-09-03T03:32:21.001Z,101063.00
2022-09-03T03:32:54.220Z,101055.00
2022-09-03T03:33:25.912Z,101059.53
2022-09-03T03:33:59.456Z,101066.72
2022-09-03T03:34:31.080Z,101060.34
2022-09-03T03:35:03.479Z,101059.53
2022-09-03T03:35:35.717Z,101062.44
2022-09-03T03:36:09.816Z,101057.09
2022-09-03T03:36:41.520Z,101060.78
2022-09-03T03:37:13.103Z,101057.53
2022-09-03T03:37:44.634Z,101061.25
2022-09-03T03:38:16.137Z,101063.25
2022-09-03T03:38:47.770Z,101060.78
2022-09-03T03:39:20.283Z,101063.47
2022-09-03T03:39:52.171Z,101069.84
2022-09-03T03:40:23.730Z,101061.97
2022-09-03T03:40:55.222Z,101056.63
2022-09-03T03:41:31.302Z,101064.06
2022-09-03T03:42:02.955Z,101064.66
2022-09-03T03:42:34.956Z,101060.06
2022-09-03T03:43:06.491Z,101058.56
2022-09-03T03:43:38.039Z,101056.00
2022-09-03T03:44:09.573Z,101059.72
2022-09-03T03:44:42.396Z,101060.78
2022-09-03T03:45:14.189Z,101057.50
2022-09-03T03:45:56.676Z,101062.72
2022-09-03T03:46:33.741Z,101064.81
2022-09-03T03:47:06.100Z,101054.94
2022-09-03T03:47:38.018Z,101061.09
2022-09-03T03:48:09.486Z,101049.81
2022-09-03T03:48:41.379Z,101054.56
2022-09-03T03:49:13.939Z,101056.41
2022-09-03T03:49:45.495Z,101053.72
2022-09-03T03:50:17.195Z,101057.44
2022-09-03T03:50:49.147Z,101064.66
2022-09-03T03:51:20.687Z,101062.78
2022-09-03T03:51:52.252Z,101064.88
2022-09-03T03:52:25.361Z,101060.56
2022-09-03T03:53:00.690Z,101063.59
2022-09-03T03:53:34.976Z,101059.91
2022-09-03T03:54:07.068Z,101059.06
2022-09-03T03:54:38.618Z,101063.59
2022-09-03T03:55:10.109Z,101066.50
2022-09-03T03:55:42.141Z,101062.44
2022-09-03T03:56:15.244Z,101072.53
2022-09-03T03:56:55.344Z,101064.50
2022-09-03T03:57:30.953Z,101066.16
2022-09-03T03:58:02.571Z,101061.25
2022-09-03T03:58:34.132Z,101063.34
2022-09-03T03:59:05.710Z,101060.06
2022-09-03T03:59:37.332Z,101069.13
2022-09-03T04:00:09.475Z,101064.25
2022-09-03T04:00:48.026Z,101064.69
2022-09-03T04:01:21.863Z,101066.19
2022-09-03T04:01:56.411Z,101062.09
2022-09-03T04:02:27.995Z,101060.66
2022-09-03T04:02:59.672Z,101062.75
2022-09-03T04:03:31.219Z,101063.19
2022-09-03T04:04:03.178Z,101067.38
2022-09-03T04:04:34.759Z,101061.44
2022-09-03T04:05:06.545Z,101059.22
2022-09-03T04:05:46.113Z,101065.81
2022-09-03T04:06:20.541Z,101065.81
2022-09-03T04:06:52.382Z,101062.78
2022-09-03T04:07:23.931Z,101063.81
2022-09-03T04:07:55.607Z,101065.44
2022-09-03T04:08:27.870Z,101063.38
2022-09-03T04:08:59.365Z,101062.19
2022-09-03T04:09:30.903Z,101062.78
2022-09-03T04:10:02.426Z,101068.13
2022-09-03T04:10:34.472Z,101065.22
2022-09-03T04:11:09.659Z,101065.00
2022-09-03T04:11:41.151Z,101065.00
2022-09-03T04:12:12.662Z,101070.34
2022-09-03T04:12:44.175Z,101065.00
2022-09-03T04:13:15.756Z,101068.13
2022-09-03T04:13:48.298Z,101063.75
2022-09-03T04:14:19.771Z,101069.44
2022-09-03T04:14:51.263Z,101067.38
2022-09-03T04:15:22.738Z,101064.91
2022-09-03T04:16:03.928Z,101071.91
2022-09-03T04:16:35.729Z,101064.47
2022-09-03T04:17:07.482Z,101070.63
2022-09-03T04:17:39.790Z,101064.91
2022-09-03T04:18:11.784Z,101075.38
2022-09-03T04:18:43.290Z,101062.03
2022-09-03T04:19:14.787Z,101071.44
2022-09-03T04:19:48.139Z,101062.84
2022-09-03T04:20:19.633Z,101062.97
2022-09-03T04:20:51.197Z,101069.59
2022-09-03T04:21:30.498Z,101063.66
2022-09-03T04:22:03.170Z,101068.41
2022-09-03T04:22:34.791Z,101073.97
2022-09-03T04:23:07.029Z,101069.91
2022-09-03T04:23:41.113Z,101067.81
2022-09-03T04:24:12.643Z,101062.91
2022-09-03T04:24:44.341Z,101065.59
2022-09-03T04:25:15.911Z,101066.03
2022-09-03T04:25:52.966Z,101063.81
2022-09-03T04:26:31.382Z,101067.97
2022-09-03T04:27:03.119Z,101059.56
2022-09-03T04:27:34.830Z,101063.88
2022-09-03T04:28:06.307Z,101066.75
2022-09-03T04:28:38.174Z,101061.63
2022-09-03T04:29:10.380Z,101067.22
2022-09-03T04:29:41.911Z,101069.00
2022-09-03T04:30:13.597Z,101067.34
2022-09-03T04:30:45.132Z,101061.41
2022-09-03T04:31:21.869Z,101072.31
2022-09-03T04:32:28.787Z,101072.53
2022-09-03T04:33:00.486Z,101065.56
2022-09-03T04:33:33.026Z,101069.47
2022-09-03T04:34:07.775Z,101066.59
2022-09-03T04:34:40.266Z,101062.72
2022-09-03T04:35:11.773Z,101067.63
2022-09-03T04:35:44.380Z,101067.03
2022-09-03T04:36:27.058Z,101070.28
2022-09-03T04:36:59.185Z,101060.66
2022-09-03T04:37:30.860Z,101067.91
2022-09-03T04:38:04.244Z,101064.19
2022-09-03T04:38:37.982Z,101069.91
2022-09-03T04:39:09.476Z,101063.09
2022-09-03T04:39:40.997Z,101060.22
2022-09-03T04:40:12.678Z,101059.78
2022-09-03T04:40:52.459Z,101063.19
2022-09-03T04:41:27.268Z,101055.34
2022-09-03T04:42:00.092Z,101065.94
2022-09-03T04:42:31.722Z,101065.72
2022-09-03T04:43:03.909Z,101063.28
2022-09-03T04:43:35.880Z,101055.50
2022-09-03T04:44:07.865Z,101064.53
2022-09-03T04:44:41.068Z,101060.22
2022-09-03T04:45:15.843Z,101057.56
2022-09-03T04:45:47.341Z,101064.13
2022-09-03T04:46:20.209Z,101061.69
2022-09-03T04:46:53.264Z,101062.50
2022-09-03T04:47:24.827Z,101062.72
2022-09-03T04:48:03.877Z,101060.06
2022-09-03T04:48:37.741Z,101061.69
2022-09-03T04:49:10.303Z,101057.38
2022-09-03T04:49:41.836Z,101053.91
2022-09-03T04:50:13.772Z,101056.34
2022-09-03T04:50:45.292Z,101060.66
2022-09-03T04:51:19.583Z,101059.25
2022-09-03T04:51:51.221Z,101059.19
2022-09-03T04:52:22.958Z,101064.94
2022-09-03T04:53:08.116Z,101062.91
2022-09-03T04:53:41.866Z,101058.38
2022-09-03T04:54:13.523Z,101059.19
2022-09-03T04:54:45.034Z,101057.56
2022-09-03T04:55:16.987Z,101060.44
2022-09-03T04:55:48.503Z,101060.44
2022-09-03T04:56:25.758Z,101060.00
2022-09-03T04:56:57.340Z,101066.16
2022-09-03T04:57:34.363Z,101057.94
2022-09-03T04:58:08.047Z,101065.94
2022-09-03T04:58:39.886Z,101060.38
2022-09-03T04:59:14.762Z,101065.28
2022-09-03T04:59:46.262Z,101066.09
2022-09-03T05:00:18.776Z,101059.94
2022-09-03T05:00:50.733Z,101064.84
2022-09-03T05:01:24.623Z,101058.91
2022-09-03T05:01:56.886Z,101058.31
2022-09-03T05:02:28.521Z,101061.56
2022-09-03T05:03:05.147Z,101063.19
2022-09-03T05:03:37.611Z,101065.88
2022-09-03T05:04:09.558Z,101055.78
2022-09-03T05:04:41.932Z,101062.31
2022-09-03T05:05:13.672Z,101056.16
2022-09-03T05:05:57.849Z,101054.88
2022-09-03T05:06:30.923Z,101051.19
2022-09-03T05:07:02.541Z,101062.47
2022-09-03T05:07:38.655Z,101056.06
2022-09-03T05:08:11.191Z,101062.22
2022-09-03T05:08:43.993Z,101060.16
2022-09-03T05:09:15.587Z,101055.63
2022-09-03T05:09:47.263Z,101059.13
2022-09-03T05:10:22.552Z,101058.09
2022-09-03T05:11:00.483Z,101059.97
2022-09-03T05:11:32.157Z,101063.22
2022-09-03T05:12:03.956Z,101061.97
2022-09-03T05:12:36.053Z,101059.28
2022-09-03T05:13:07.950Z,101061.75
2022-09-03T05:13:40.099Z,101061.75
2022-09-03T05:14:12.746Z,101058.03
2022-09-03T05:14:44.283Z,101060.47
2022-09-03T05:15:16.142Z,101061.75
2022-09-03T05:15:47.628Z,101061.75
2022-09-03T05:16:19.826Z,101064.19
2022-09-03T05:16:52.673Z,101059.22
2022-09-03T05:17:24.547Z,101049.34
2022-09-03T05:17:57.884Z,101062.47
2022-09-03T05:18:29.842Z,101061.44
2022-09-03T05:19:01.616Z,101053.41
2022-09-03T05:19:34.498Z,101052.81
2022-09-03T05:20:10.144Z,101056.31
2022-09-03T05:20:41.630Z,101056.53
2022-09-03T05:21:15.789Z,101062.47
2022-09-03T05:21:47.340Z,101063.28
2022-09-03T05:22:21.370Z,101059.81
2022-09-03T05:22:53.031Z,101060.38
2022-09-03T05:23:24.958Z,101062.03
2022-09-03T05:23:56.662Z,101058.31
2022-09-03T05:24:28.180Z,101066.91
2022-09-03T05:24:59.683Z,101066.47
2022-09-03T05:25:34.645Z,101061.94
2022-09-03T05:26:10.982Z,101061.72
2022-09-03T05:26:42.790Z,101069.72
2022-09-03T05:27:16.897Z,101066.00
2022-09-03T05:27:48.759Z,101062.53
2022-09-03T05:28:20.312Z,101060.66
2022-09-03T05:28:56.290Z,101059.44
2022-09-03T05:29:27.767Z,101056.53
2022-09-03T05:29:59.467Z,101058.75
2022-09-03T05:30:30.968Z,101061.66
2022-09-03T05:31:13.808Z,101064.69
2022-09-03T05:31:45.470Z,101057.25
2022-09-03T05:32:17.356Z,101063.06
2022-09-03T05:32:49.209Z,101060.38
2022-09-03T05:33:23.803Z,101063.88
2022-09-03T05:33:58.621Z,101061.19
2022-09-03T05:34:30.171Z,101067.13
2022-09-03T05:35:01.678Z,101064.47
2022-09-03T05:35:33.167Z,101056.22
2022-09-03T05:36:06.737Z,101058.91
2022-09-03T05:36:38.542Z,101055.53
2022-09-03T05:37:10.415Z,101063.78
2022-09-03T05:37:41.915Z,101053.69
2022-09-03T05:38:14.373Z,101058.00
2022-09-03T05:38:47.290Z,101059.63
2022-09-03T05:39:18.859Z,101057.53
2022-09-03T05:39:51.139Z,101057.91
2022-09-03T05:40:22.818Z,101056.63
2022-09-03T05:40:54.303Z,101057.44
2022-09-03T05:41:27.090Z,101046.75
2022-09-03T05:41:58.634Z,101056.19
2022-09-03T05:42:31.207Z,101059.47
2022-09-03T05:43:07.877Z,101052.03
2022-09-03T05:43:40.629Z,101052.63
2022-09-03T05:44:12.220Z,101055.28
2022-09-03T05:44:44.109Z,101050.31
2022-09-03T05:45:15.661Z,101049.50
2022-09-03T05:45:47.461Z,101056.00
2022-09-03T05:46:19.343Z,101056.81
2022-09-03T05:46:51.711Z,101053.91
2022-09-03T05:47:23.195Z,101057.19
2022-09-03T05:47:54.800Z,101054.28
2022-09-03T05:48:27.533Z,101050.56
2022-09-03T05:49:00.626Z,101063.06
2022-09-03T05:49:32.198Z,101059.50
2022-09-03T05:50:03.900Z,101058.91
2022-09-03T05:50:35.579Z,101056.84
2022-09-03T05:51:16.373Z,101057.66
2022-09-03T05:51:47.938Z,101057.41
2022-09-03T05:52:23.442Z,101054.50
2022-09-03T05:52:54.973Z,101053.81
2022-09-03T05:53:27.807Z,101051.13
2022-09-03T05:54:02.958Z,101055.25
2022-09-03T05:54:34.440Z,101055.00
2022-09-03T05:55:06.967Z,101048.75
2022-09-03T05:55:40.279Z,101053.97
2022-09-03T05:56:18.060Z,101054.69
2022-09-03T05:56:49.912Z,101057.13
2022-09-03T05:57:21.639Z,101059.78
2022-09-03T05:57:53.161Z,101056.66
2022-09-03T05:58:25.373Z,101055.03
2022-09-03T05:59:03.152Z,101058.75
2022-09-03T05:59:34.653Z,101056.66
2022-09-03T06:00:06.802Z,101053.97
2022-09-03T06:00:43.559Z,101052.97
2022-09-03T06:01:24.980Z,101051.31
2022-09-03T06:02:00.040Z,101050.28
2022-09-03T06:02:32.648Z,101056.22
2022-09-03T06:03:04.664Z,101054.34
2022-09-03T06:03:37.256Z,101050.63
2022-09-03T06:04:13.603Z,101055.16
2022-09-03T06:04:45.258Z,101053.53
2022-09-03T06:05:17.026Z,101056.22
2022-09-03T06:05:52.248Z,101054.72
2022-09-03T06:06:27.438Z,101045.50
2022-09-03T06:06:58.917Z,101054.94
2022-09-03T06:07:30.445Z,101048.16
2022-09-03T06:08:02.194Z,101044.22
2022-09-03T06:08:34.416Z,101039.56
2022-09-03T06:09:08.186Z,101043.38
2022-09-03T06:09:39.739Z,101042.19
2022-09-03T06:10:12.639Z,101042.09
2022-09-03T06:10:45.062Z,101043.44
2022-09-03T06:11:16.655Z,101039.03
2022-09-03T06:11:50.207Z,101035.78
2022-09-03T06:12:21.936Z,101032.69
2022-09-03T06:12:53.479Z,101032.16
2022-09-03T06:13:25.461Z,101027.50
2022-09-03T06:13:58.046Z,101028.88
2022-09-03T06:14:29.822Z,101025.97
2022-09-03T06:15:01.312Z,101024.03
2022-09-03T06:15:32.898Z,101023.31
2022-09-03T06:16:07.177Z,101023.13
2022-09-03T06:16:41.338Z,101016.09
2022-09-03T06:17:12.943Z,101016.59
2022-09-03T06:17:44.439Z,101025.88
2022-09-03T06:18:16.001Z,101025.44
2022-09-03T06:18:47.725Z,101019.56
2022-09-03T06:19:19.500Z,101019.03
2022-09-03T06:19:51.039Z,101025.50
2022-09-03T06:20:29.097Z,101012.84
2022-09-03T06:21:02.354Z,101019.59
2022-09-03T06:21:34.056Z,101022.59
2022-09-03T06:22:05.584Z,101020.66
2022-09-03T06:22:37.168Z,101013.56
2022-09-03T06:23:08.862Z,101018.41
2022-09-03T06:23:45.734Z,101018.09
2022-09-03T06:24:20.583Z,101023.22
2022-09-03T06:24:52.580Z,101024.41
2022-09-03T06:25:24.816Z,101020.66
2022-09-03T06:26:14.139Z,101019.03
2022-09-03T06:26:46.607Z,101020.19
2022-09-03T06:27:20.602Z,101020.81
2022-09-03T06:27:53.245Z,101017.75
2022-09-03T06:28:26.743Z,101010.66
2022-09-03T06:28:59.873Z,101025.88
2022-09-03T06:29:31.422Z,101011.81
2022-09-03T06:30:03.214Z,101010.16
2022-09-03T06:30:35.976Z,101009.53
2022-09-03T06:31:09.980Z,101010.81
2022-09-03T06:31:41.676Z,101010.06
2022-09-03T06:32:14.022Z,101004.28
2022-09-03T06:32:46.508Z,101010.75
2022-09-03T06:33:18.718Z,101019.00
2022-09-03T06:33:50.305Z,101008.69
2022-09-03T06:34:22.747Z,101000.69
2022-09-03T06:34:54.706Z,101009.88
2022-09-03T06:35:26.188Z,101005.75
2022-09-03T06:35:59.602Z,101009.34
2022-09-03T06:36:31.153Z,101003.28
2022-09-03T06:37:02.686Z,101002.47
2022-09-03T06:37:40.150Z,101006.81
2022-09-03T06:38:12.737Z,101006.25
2022-09-03T06:38:46.226Z,101009.75
2022-09-03T06:39:17.831Z,101007.84
2022-09-03T06:39:50.595Z,101008.91
2022-09-03T06:40:23.562Z,101012.44
2022-09-03T06:41:02.004Z,101012.63
2022-09-03T06:41:35.511Z,101013.34
2022-09-03T06:42:08.614Z,101008.03
2022-09-03T06:42:46.119Z,101012.28
2022-09-03T06:43:18.319Z,101009.28
2022-09-03T06:43:50.415Z,101013.84
2022-09-03T06:44:21.964Z,101008.03
2022-09-03T06:44:53.454Z,101010.75
2022-09-03T06:45:25.141Z,101003.97
2022-09-03T06:46:02.668Z,101012.47
2022-09-03T06:46:35.729Z,101010.34
2022-09-03T06:47:07.271Z,101001.34
2022-09-03T06:47:38.858Z,101004.53
2022-09-03T06:48:10.399Z,101009.41
2022-09-03T06:48:42.561Z,101001.66
2022-09-03T06:49:17.607Z,101015.41
2022-09-03T06:49:49.301Z,101000.97
2022-09-03T06:50:21.555Z,101016.16
2022-09-03T06:50:54.839Z,101000.47
2022-09-03T06:51:28.171Z,100998.94
2022-09-03T06:51:59.930Z,101006.94